Terminal Aerodrome Forecast
Issued by NWS Sterling, VA

Current Version | Previous Version | Graphics & Text | Print | Product List | Glossary On
Versions: 1 2 3 4 5 6 7 8 9 10 11 12 13 14 15 16 17 18 19
000
FTUS41 KLWX 171722
TAFMRB
TAF
KMRB 171722Z 1718/1818 16005KT P6SM SCT040 BKN120
     FM172100 16007KT P6SM VCTS SCT045CB BKN100
     FM180300 18004KT P6SM SCT040 BKN250
     FM181000 VRB03KT 3SM BR SCT040 BKN100
     FM181500 21005KT P6SM SCT040 BKN130=

USA.gov is the U.S. government's official web portal to all federal, state and local government web resources and services.